createdAt,value
2019-06-07T00:00:39.406Z,1.30
2019-06-07T00:03:27.450Z,0.97
2019-06-07T00:06:15.108Z,1.10
2019-06-07T00:09:01.227Z,0.83
2019-06-07T00:11:49.832Z,1.30
2019-06-07T00:14:38.196Z,0.97
2019-06-07T00:17:26.692Z,0.83
2019-06-07T00:20:19.475Z,0.90
2019-06-07T00:23:05.666Z,1.10
2019-06-07T00:25:53.848Z,1.37
2019-06-07T00:28:42.102Z,1.05
2019-06-07T00:31:30.520Z,0.70
2019-06-07T00:34:20.045Z,1.30
2019-06-07T00:37:11.131Z,0.90
2019-06-07T00:40:14.081Z,1.23
2019-06-07T00:42:48.616Z,1.00
2019-06-07T00:45:37.197Z,1.30
2019-06-07T00:48:32.101Z,1.00
2019-06-07T00:51:17.244Z,1.10
2019-06-07T00:54:05.439Z,1.03
2019-06-07T00:56:54.306Z,1.27
2019-06-07T00:59:42.874Z,1.03
2019-06-07T01:02:31.837Z,0.93
2019-06-07T01:05:26.193Z,1.13
2019-06-07T01:08:10.539Z,0.90
2019-06-07T01:10:58.984Z,1.33
2019-06-07T01:13:47.170Z,1.20
2019-06-07T01:16:55.734Z,0.90
2019-06-07T01:19:27.767Z,1.02
2019-06-07T01:22:17.828Z,1.20
2019-06-07T01:25:08.562Z,0.90
2019-06-07T01:27:56.832Z,1.10
2019-06-07T01:30:45.447Z,0.90
2019-06-07T01:33:50.257Z,1.17
2019-06-07T01:36:25.231Z,1.20
2019-06-07T01:39:13.278Z,1.00
2019-06-07T01:42:01.370Z,0.90
2019-06-07T01:44:50.164Z,1.00
2019-06-07T01:47:38.623Z,1.00
2019-06-07T01:50:27.163Z,0.97
2019-06-07T01:53:15.260Z,1.00
2019-06-07T01:56:03.628Z,0.90
2019-06-07T01:58:51.670Z,1.00
2019-06-07T02:01:40.267Z,0.97
2019-06-07T02:04:32.416Z,0.80
2019-06-07T02:07:20.401Z,0.95
2019-06-07T02:10:08.747Z,0.90
2019-06-07T02:12:57.483Z,0.93
2019-06-07T02:15:46.127Z,0.95
2019-06-07T02:18:35.154Z,0.90
2019-06-07T02:21:26.003Z,1.10
2019-06-07T02:24:13.859Z,1.07
2019-06-07T02:27:02.509Z,1.10
2019-06-07T02:29:50.794Z,0.90
2019-06-07T02:32:39.479Z,1.10
2019-06-07T02:35:34.758Z,1.00
2019-06-07T02:38:18.074Z,0.93
2019-06-07T02:41:06.841Z,1.30
2019-06-07T02:43:55.697Z,0.70
2019-06-07T02:46:49.167Z,1.13
2019-06-07T02:49:40.519Z,1.13
2019-06-07T02:52:27.243Z,1.00
2019-06-07T02:55:15.077Z,0.80
2019-06-07T02:58:03.738Z,1.13
2019-06-07T03:01:06.843Z,1.03
2019-06-07T03:03:42.435Z,1.00
2019-06-07T03:06:35.905Z,0.90
2019-06-07T03:09:22.327Z,0.95
2019-06-07T03:12:14.332Z,1.13
2019-06-07T03:15:03.391Z,1.20
2019-06-07T03:18:00.702Z,0.90
2019-06-07T03:21:04.659Z,1.00
2019-06-07T03:23:41.380Z,1.00
2019-06-07T03:26:34.850Z,1.10
2019-06-07T03:29:19.937Z,0.88
2019-06-07T03:32:08.485Z,1.10
2019-06-07T03:34:56.576Z,1.00
2019-06-07T03:37:44.823Z,1.60
2019-06-07T03:40:37.740Z,0.97
2019-06-07T03:43:23.534Z,0.82
2019-06-07T03:46:11.962Z,0.83
2019-06-07T03:49:00.521Z,0.90
2019-06-07T03:51:48.877Z,0.97
2019-06-07T03:54:39.767Z,0.80
2019-06-07T03:57:28.732Z,1.00
2019-06-07T04:00:17.220Z,1.07
2019-06-07T04:03:05.951Z,0.77
2019-06-07T04:05:53.948Z,0.75
2019-06-07T04:08:42.433Z,1.00
2019-06-07T04:11:30.688Z,0.87
2019-06-07T04:14:20.695Z,0.90
2019-06-07T04:17:09.287Z,0.90
2019-06-07T04:19:57.734Z,1.20
2019-06-07T04:22:46.203Z,1.10
2019-06-07T04:25:37.155Z,0.90
2019-06-07T04:29:15.592Z,0.90
2019-06-07T04:31:14.900Z,1.07
2019-06-07T04:34:03.336Z,1.10
2019-06-07T04:36:58.940Z,1.20
2019-06-07T04:39:45.613Z,1.10
2019-06-07T04:42:39.165Z,0.73
2019-06-07T04:45:37.369Z,0.80
2019-06-07T04:48:21.299Z,0.70
2019-06-07T04:51:10.325Z,0.80
2019-06-07T04:53:58.405Z,1.00
2019-06-07T04:56:46.701Z,0.97
2019-06-07T05:00:10.955Z,0.73
2019-06-07T05:02:25.209Z,0.80
2019-06-07T05:05:13.801Z,1.10
2019-06-07T05:08:07.474Z,0.87
2019-06-07T05:10:52.393Z,1.13
2019-06-07T05:13:43.839Z,0.90
2019-06-07T05:16:35.193Z,1.00
2019-06-07T05:19:21.231Z,0.85
2019-06-07T05:22:09.567Z,1.00
2019-06-07T05:24:57.995Z,0.90
2019-06-07T05:27:46.926Z,1.27
2019-06-07T05:33:31.146Z,0.80
2019-06-07T05:36:20.410Z,0.90
2019-06-07T05:39:09.140Z,0.90
2019-06-07T05:41:57.684Z,0.73
2019-06-07T05:44:46.025Z,0.87
2019-06-07T05:47:39.981Z,1.07
2019-06-07T05:50:39.215Z,1.07
2019-06-07T05:53:14.133Z,1.67
2019-06-07T05:56:02.660Z,1.00
2019-06-07T05:58:51.302Z,0.93
2019-06-07T06:01:52.370Z,0.83
2019-06-07T06:04:29.820Z,1.47
2019-06-07T06:07:18.524Z,1.07
2019-06-07T06:10:08.936Z,1.00
2019-06-07T06:12:57.550Z,0.97
2019-06-07T06:16:00.621Z,1.03
2019-06-07T06:18:38.049Z,1.10
2019-06-07T06:21:26.932Z,0.80
2019-06-07T06:24:15.437Z,0.90
2019-06-07T06:27:18.936Z,1.30
2019-06-07T06:29:53.909Z,0.80
2019-06-07T06:32:51.080Z,1.00
2019-06-07T06:35:33.440Z,1.00
2019-06-07T06:38:21.924Z,0.90
2019-06-07T06:41:15.834Z,0.97
2019-06-07T06:44:00.678Z,1.00
2019-06-07T06:46:57.179Z,1.13
2019-06-07T06:49:41.420Z,1.00
2019-06-07T06:52:29.808Z,1.10
2019-06-07T06:55:18.373Z,1.10
2019-06-07T06:58:06.745Z,0.90
2019-06-07T07:01:05.724Z,1.00
2019-06-07T07:04:06.221Z,0.80
2019-06-07T07:06:35.893Z,1.27
2019-06-07T07:09:25.028Z,1.00
2019-06-07T07:12:15.092Z,1.57
2019-06-07T07:15:08.430Z,1.20
2019-06-07T07:18:07.828Z,1.50
2019-06-07T07:20:48.316Z,1.30
2019-06-07T07:23:36.315Z,1.00
2019-06-07T07:26:24.916Z,1.67
2019-06-07T07:29:13.464Z,1.17
2019-06-07T07:32:01.737Z,1.40
2019-06-07T07:34:54.332Z,1.60
2019-06-07T07:37:40.060Z,1.50
2019-06-07T07:40:56.834Z,1.17
2019-06-07T07:43:17.987Z,1.10
2019-06-07T07:46:28.501Z,1.30
2019-06-07T07:48:56.523Z,1.47
2019-06-07T07:51:46.315Z,2.27
2019-06-07T07:54:34.991Z,2.20
2019-06-07T07:57:23.109Z,2.80
2019-06-07T08:00:48.517Z,2.60
2019-06-07T08:03:04.346Z,3.22
2019-06-07T08:05:54.350Z,2.03
2019-06-07T08:08:41.739Z,1.50
2019-06-07T08:11:30.314Z,1.90
2019-06-07T08:14:18.519Z,2.10
2019-06-07T08:17:06.665Z,1.63
2019-06-07T08:19:57.316Z,2.00
2019-06-07T08:22:44.876Z,1.47
2019-06-07T08:25:33.401Z,1.90
2019-06-07T08:28:21.570Z,1.50
2019-06-07T08:31:10.053Z,2.33
2019-06-07T08:34:00.664Z,1.85
2019-06-07T08:36:49.977Z,2.10
2019-06-07T08:39:38.980Z,2.23
2019-06-07T08:42:36.945Z,2.13
2019-06-07T08:45:18.002Z,2.03
2019-06-07T08:48:26.589Z,2.47
2019-06-07T08:51:02.214Z,3.10
2019-06-07T08:54:02.850Z,2.90
2019-06-07T08:56:38.138Z,3.10
2019-06-07T08:59:26.266Z,3.00
2019-06-07T09:02:23.645Z,2.30
2019-06-07T09:05:12.248Z,3.10
2019-06-07T09:08:21.744Z,2.27
2019-06-07T09:10:46.764Z,2.13
2019-06-07T09:13:35.337Z,2.40
2019-06-07T09:16:23.591Z,3.07
2019-06-07T09:19:11.961Z,2.37
2019-06-07T09:22:03.364Z,2.90
2019-06-07T09:24:51.027Z,2.73
2019-06-07T09:27:39.431Z,3.23
2019-06-07T09:30:41.592Z,2.60
2019-06-07T09:33:29.776Z,2.03
2019-06-07T09:36:17.942Z,2.23
2019-06-07T09:39:11.799Z,2.30
2019-06-07T09:41:58.685Z,2.20
2019-06-07T09:44:47.422Z,2.63
2019-06-07T09:47:36.025Z,2.77
2019-06-07T09:50:24.826Z,2.10
2019-06-07T09:53:21.745Z,1.93
2019-06-07T09:56:08.333Z,2.03
2019-06-07T09:58:54.221Z,2.47
2019-06-07T10:01:43.315Z,1.70
2019-06-07T10:04:31.764Z,2.10
2019-06-07T10:07:31.191Z,1.80
2019-06-07T10:13:01.670Z,2.00
2019-06-07T10:15:53.011Z,2.30
2019-06-07T10:18:40.141Z,2.10
2019-06-07T10:21:28.418Z,1.93
2019-06-07T10:24:16.917Z,2.37
2019-06-07T10:27:06.026Z,2.30
2019-06-07T10:29:57.527Z,2.33
2019-06-07T10:32:46.063Z,1.90
2019-06-07T10:35:35.154Z,1.93
2019-06-07T10:38:23.752Z,1.80
2019-06-07T10:41:12.035Z,2.03
2019-06-07T10:44:01.029Z,1.57
2019-06-07T10:46:49.432Z,1.63
2019-06-07T10:49:37.920Z,1.75
2019-06-07T10:52:26.165Z,1.70
2019-06-07T10:55:15.293Z,1.80
2019-06-07T10:58:04.729Z,1.50
2019-06-07T11:00:53.067Z,1.93
2019-06-07T11:03:41.270Z,2.23
2019-06-07T11:06:29.621Z,1.50
2019-06-07T11:09:17.783Z,1.43
2019-06-07T11:12:06.402Z,1.50
2019-06-07T11:14:55.087Z,1.43
2019-06-07T11:17:43.216Z,1.53
2019-06-07T11:20:31.639Z,1.27
2019-06-07T11:23:20.046Z,1.57
2019-06-07T11:26:08.451Z,1.83
2019-06-07T11:28:56.695Z,1.72
2019-06-07T11:31:47.516Z,1.22
2019-06-07T11:34:35.423Z,2.30
2019-06-07T11:37:23.759Z,1.70
2019-06-07T11:40:35.108Z,1.60
2019-06-07T11:43:02.760Z,1.10
2019-06-07T11:45:51.351Z,1.40
2019-06-07T11:48:40.019Z,1.10
2019-06-07T11:51:28.401Z,1.70
2019-06-07T11:54:20.418Z,1.23
2019-06-07T11:57:07.221Z,1.20
2019-06-07T11:59:55.423Z,0.93
2019-06-07T12:02:43.776Z,1.25
2019-06-07T12:05:32.147Z,1.30
2019-06-07T12:08:20.436Z,1.77
2019-06-07T12:11:10.034Z,1.40
2019-06-07T12:13:59.986Z,1.30
2019-06-07T12:16:48.435Z,1.00
2019-06-07T12:19:36.768Z,1.20
2019-06-07T12:22:24.962Z,1.30
2019-06-07T12:25:18.989Z,1.10
2019-06-07T12:28:03.562Z,0.97
2019-06-07T12:30:55.088Z,1.07
2019-06-07T12:33:42.254Z,0.90
2019-06-07T12:36:30.489Z,1.30
2019-06-07T12:39:20.078Z,1.30
2019-06-07T12:42:08.687Z,1.17
2019-06-07T12:44:57.073Z,1.40
2019-06-07T12:47:45.195Z,1.50
2019-06-07T12:50:42.805Z,1.70
2019-06-07T12:53:26.428Z,1.30
2019-06-07T12:56:14.039Z,1.27
2019-06-07T12:59:02.492Z,1.40
2019-06-07T13:01:51.026Z,1.10
2019-06-07T13:04:39.422Z,1.65
2019-06-07T13:07:28.001Z,1.30
2019-06-07T13:10:17.898Z,1.57
2019-06-07T13:13:06.705Z,1.50
2019-06-07T13:15:54.995Z,1.53
2019-06-07T13:18:43.421Z,1.70
2019-06-07T13:21:31.873Z,1.60
2019-06-07T13:24:20.936Z,1.90
2019-06-07T13:27:09.841Z,1.83
2019-06-07T13:30:09.134Z,1.63
2019-06-07T13:32:52.465Z,1.90
2019-06-07T13:35:40.718Z,1.90
2019-06-07T13:38:29.375Z,1.93
2019-06-07T13:41:32.637Z,1.65
2019-06-07T13:44:08.036Z,1.63
2019-06-07T13:46:56.391Z,1.40
2019-06-07T13:49:44.566Z,1.53
2019-06-07T13:52:32.805Z,1.30
2019-06-07T13:55:21.940Z,1.60
2019-06-07T13:58:10.446Z,1.43
2019-06-07T14:00:58.825Z,1.30
2019-06-07T14:03:46.891Z,1.62
2019-06-07T14:06:35.745Z,1.60
2019-06-07T14:09:25.244Z,1.73
2019-06-07T14:12:13.568Z,1.60
2019-06-07T14:15:01.936Z,1.30
2019-06-07T14:17:50.542Z,1.67
2019-06-07T14:20:38.698Z,1.90
2019-06-07T14:23:42.435Z,1.43
2019-06-07T14:26:16.738Z,1.60
2019-06-07T14:29:05.429Z,1.70
2019-06-07T14:31:53.594Z,1.40
2019-06-07T14:34:42.251Z,1.80
2019-06-07T14:37:32.937Z,1.60
2019-06-07T14:40:23.032Z,2.40
2019-06-07T14:43:11.604Z,2.27
2019-06-07T14:46:00.101Z,1.70
2019-06-07T14:48:48.228Z,2.50
2019-06-07T14:51:36.583Z,1.80
2019-06-07T14:54:24.917Z,1.43
2019-06-07T14:57:12.982Z,1.50
2019-06-07T15:00:10.484Z,1.93
2019-06-07T15:02:51.735Z,1.33
2019-06-07T15:05:40.587Z,2.00
2019-06-07T15:08:30.642Z,1.70
2019-06-07T15:11:19.004Z,2.50
2019-06-07T15:14:07.255Z,2.00
2019-06-07T15:16:55.448Z,1.90
2019-06-07T15:19:43.489Z,1.83
2019-06-07T15:22:32.184Z,1.77
2019-06-07T15:25:20.567Z,1.60
2019-06-07T15:28:08.765Z,1.30
2019-06-07T15:30:57.008Z,1.33
2019-06-07T15:33:45.345Z,1.97
2019-06-07T15:36:34.410Z,1.70
2019-06-07T15:39:34.903Z,1.60
2019-06-07T15:42:23.101Z,1.60
2019-06-07T15:45:11.300Z,1.87
2019-06-07T15:48:00.087Z,1.60
2019-06-07T15:50:48.385Z,1.60
2019-06-07T15:53:42.307Z,1.67
2019-06-07T15:56:28.821Z,1.90
2019-06-07T15:59:17.231Z,2.20
2019-06-07T16:02:05.771Z,1.67
2019-06-07T16:04:54.092Z,2.17
2019-06-07T16:07:43.150Z,2.55
2019-06-07T16:10:32.738Z,2.23
2019-06-07T16:13:21.174Z,2.40
2019-06-07T16:16:09.802Z,2.33
2019-06-07T16:18:59.083Z,2.57
2019-06-07T16:21:48.508Z,2.63
2019-06-07T16:24:37.687Z,2.23
2019-06-07T16:27:27.992Z,3.03
2019-06-07T16:30:18.458Z,2.90
2019-06-07T16:33:06.775Z,2.83
2019-06-07T16:35:55.277Z,3.20
2019-06-07T16:38:44.390Z,2.40
2019-06-07T16:41:32.905Z,2.93
2019-06-07T16:44:21.463Z,1.97
2019-06-07T16:47:10.478Z,1.40
2019-06-07T16:49:58.723Z,2.10
2019-06-07T16:52:48.451Z,2.07
2019-06-07T16:55:36.927Z,2.00
2019-06-07T16:58:25.358Z,1.53
2019-06-07T17:01:14.324Z,1.60
2019-06-07T17:04:03.132Z,1.70
2019-06-07T17:06:51.655Z,2.13
2019-06-07T17:09:40.349Z,1.80
2019-06-07T17:12:29.207Z,1.63
2019-06-07T17:15:19.398Z,2.53
2019-06-07T17:18:08.362Z,1.53
2019-06-07T17:20:56.649Z,1.50
2019-06-07T17:23:45.882Z,1.30
2019-06-07T17:26:34.358Z,1.47
2019-06-07T17:29:22.749Z,1.60
2019-06-07T17:32:11.136Z,1.27
2019-06-07T17:34:59.406Z,1.20
2019-06-07T17:37:49.575Z,1.13
2019-06-07T17:40:37.861Z,1.20
2019-06-07T17:43:26.606Z,1.40
2019-06-07T17:46:15.167Z,1.67
2019-06-07T17:49:03.725Z,1.33
2019-06-07T17:51:52.598Z,1.70
2019-06-07T17:54:41.779Z,1.33
2019-06-07T17:57:30.631Z,1.23
2019-06-07T18:00:29.040Z,1.30
2019-06-07T18:03:11.155Z,1.40
2019-06-07T18:06:01.917Z,1.30
2019-06-07T18:08:51.736Z,1.60
2019-06-07T18:11:40.484Z,1.40
2019-06-07T18:14:28.830Z,1.20
2019-06-07T18:17:17.427Z,1.80
2019-06-07T18:20:10.058Z,1.35
2019-06-07T18:22:58.386Z,1.10
2019-06-07T18:25:48.463Z,1.33
2019-06-07T18:28:37.167Z,1.50
2019-06-07T18:31:25.863Z,1.40
2019-06-07T18:34:14.531Z,1.20
2019-06-07T18:37:02.773Z,1.40
2019-06-07T18:39:51.245Z,1.40
2019-06-07T18:42:39.931Z,1.10
2019-06-07T18:45:28.299Z,1.60
2019-06-07T18:48:17.032Z,1.67
2019-06-07T18:51:05.458Z,1.60
2019-06-07T18:53:54.210Z,1.20
2019-06-07T18:56:42.950Z,1.60
2019-06-07T18:59:31.730Z,1.43
2019-06-07T19:02:20.374Z,1.30
2019-06-07T19:05:09.305Z,1.63
2019-06-07T19:07:59.885Z,1.37
2019-06-07T19:10:48.687Z,1.90
2019-06-07T19:13:37.243Z,1.30
2019-06-07T19:16:25.958Z,1.60
2019-06-07T19:19:14.446Z,1.30
2019-06-07T19:22:02.693Z,1.60
2019-06-07T19:24:52.106Z,1.40
2019-06-07T19:27:40.515Z,1.63
2019-06-07T19:30:28.792Z,1.30
2019-06-07T19:33:16.865Z,1.40
2019-06-07T19:36:05.554Z,1.50
2019-06-07T19:38:54.093Z,1.40
2019-06-07T19:41:42.925Z,1.47
2019-06-07T19:44:31.769Z,1.70
2019-06-07T19:47:20.559Z,1.27
2019-06-07T19:50:09.578Z,1.40
2019-06-07T19:52:59.129Z,1.43
2019-06-07T19:55:47.682Z,1.23
2019-06-07T19:58:36.292Z,1.13
2019-06-07T20:01:24.990Z,1.10
2019-06-07T20:04:13.502Z,1.50
2019-06-07T20:07:03.905Z,1.17
2019-06-07T20:09:51.640Z,1.30
2019-06-07T20:12:40.489Z,1.80
2019-06-07T20:15:29.764Z,1.10
2019-06-07T20:18:18.185Z,1.30
2019-06-07T20:21:06.531Z,1.40
2019-06-07T20:23:55.198Z,1.40
2019-06-07T20:26:43.927Z,1.63
2019-06-07T20:29:32.784Z,1.30
2019-06-07T20:32:21.112Z,1.27
2019-06-07T20:35:11.257Z,1.33
2019-06-07T20:38:01.089Z,1.40
2019-06-07T20:40:50.198Z,1.33
2019-06-07T20:43:38.715Z,1.30
2019-06-07T20:46:26.864Z,1.50
2019-06-07T20:49:15.282Z,1.20
2019-06-07T20:52:04.827Z,1.40
2019-06-07T20:54:54.002Z,1.40
2019-06-07T20:57:43.626Z,1.20
2019-06-07T21:00:32.360Z,1.57
2019-06-07T21:03:20.756Z,1.47
2019-06-07T21:06:09.961Z,1.20
2019-06-07T21:08:59.333Z,1.23
2019-06-07T21:11:48.215Z,1.53
2019-06-07T21:14:36.670Z,1.20
2019-06-07T21:17:25.098Z,1.40
2019-06-07T21:20:14.984Z,1.20
2019-06-07T21:23:04.708Z,1.20
2019-06-07T21:25:53.539Z,1.60
2019-06-07T21:28:41.679Z,1.47
2019-06-07T21:31:31.144Z,1.40
2019-06-07T21:34:19.736Z,1.37
2019-06-07T21:37:09.841Z,1.33
2019-06-07T21:39:58.765Z,1.60
2019-06-07T21:42:47.305Z,1.67
2019-06-07T21:45:36.595Z,1.30
2019-06-07T21:48:24.964Z,1.37
2019-06-07T21:51:13.087Z,1.20
2019-06-07T21:54:02.829Z,2.10
2019-06-07T21:56:52.189Z,1.77
2019-06-07T21:59:40.780Z,1.62
2019-06-07T22:02:29.147Z,1.33
2019-06-07T22:05:17.536Z,1.30
2019-06-07T22:08:08.166Z,1.77
2019-06-07T22:10:56.435Z,1.90
2019-06-07T22:13:44.864Z,1.67
2019-06-07T22:16:33.223Z,1.37
2019-06-07T22:19:21.432Z,1.30
2019-06-07T22:22:11.030Z,1.60
2019-06-07T22:24:59.637Z,1.60
2019-06-07T22:27:48.063Z,1.30
2019-06-07T22:30:37.066Z,1.57
2019-06-07T22:33:25.662Z,1.93
2019-06-07T22:36:15.911Z,1.73
2019-06-07T22:39:05.547Z,1.40
2019-06-07T22:41:53.721Z,1.50
2019-06-07T22:44:42.017Z,1.30
2019-06-07T22:47:30.358Z,1.60
2019-06-07T22:50:19.522Z,1.67
2019-06-07T22:53:07.637Z,1.20
2019-06-07T22:56:03.648Z,1.50
2019-06-07T22:58:52.019Z,1.82
2019-06-07T23:01:40.367Z,1.60
2019-06-07T23:04:30.130Z,1.60
2019-06-07T23:07:19.206Z,2.07
2019-06-07T23:10:09.012Z,1.60
2019-06-07T23:12:57.315Z,1.67
2019-06-07T23:15:45.721Z,1.77
2019-06-07T23:18:34.503Z,1.70
2019-06-07T23:21:23.550Z,1.97
2019-06-07T23:24:12.064Z,1.60
2019-06-07T23:27:00.350Z,2.03
2019-06-07T23:29:48.828Z,1.87
2019-06-07T23:32:38.022Z,1.70
2019-06-07T23:35:26.396Z,1.63
2019-06-07T23:38:14.978Z,1.57
2019-06-07T23:41:03.893Z,1.63
2019-06-07T23:43:52.503Z,1.73
2019-06-07T23:46:40.666Z,1.70
2019-06-07T23:49:29.025Z,1.53
2019-06-07T23:52:22.087Z,1.60
2019-06-07T23:55:11.860Z,1.40
2019-06-07T23:58:00.473Z,1.30
